sensor_id;sensor_type;location;lat;lon;timestamp;P1;durP1;ratioP1;P2;durP2;ratioP2
2023;SDS011;1016;48.770;9.154;2023-02-03T00:00:07;16.10;;;1.20;;
2023;SDS011;1016;48.770;9.154;2023-02-03T00:02:33;15.77;;;1.13;;
2023;SDS011;1016;48.770;9.154;2023-02-03T00:04:59;16.10;;;1.20;;
2023;SDS011;1016;48.770;9.154;2023-02-03T00:07:24;16.23;;;1.27;;
2023;SDS011;1016;48.770;9.154;2023-02-03T00:09:50;17.00;;;1.30;;
2023;SDS011;1016;48.770;9.154;2023-02-03T00:12:15;16.60;;;1.07;;
2023;SDS011;1016;48.770;9.154;2023-02-03T00:14:41;16.10;;;1.10;;
2023;SDS011;1016;48.770;9.154;2023-02-03T00:17:06;16.87;;;1.10;;
2023;SDS011;1016;48.770;9.154;2023-02-03T00:19:32;16.07;;;1.30;;
2023;SDS011;1016;48.770;9.154;2023-02-03T00:21:57;15.23;;;0.90;;
2023;SDS011;1016;48.770;9.154;2023-02-03T00:24:23;15.70;;;1.10;;
2023;SDS011;1016;48.770;9.154;2023-02-03T00:26:49;19.27;;;1.00;;
2023;SDS011;1016;48.770;9.154;2023-02-03T00:29:14;15.23;;;0.90;;
2023;SDS011;1016;48.770;9.154;2023-02-03T00:31:40;15.33;;;0.80;;
2023;SDS011;1016;48.770;9.154;2023-02-03T00:34:05;15.27;;;0.70;;
2023;SDS011;1016;48.770;9.154;2023-02-03T00:36:31;16.20;;;1.00;;
2023;SDS011;1016;48.770;9.154;2023-02-03T00:38:56;16.20;;;1.00;;
2023;SDS011;1016;48.770;9.154;2023-02-03T00:41:22;15.33;;;0.80;;
2023;SDS011;1016;48.770;9.154;2023-02-03T00:43:53;15.57;;;1.10;;
2023;SDS011;1016;48.770;9.154;2023-02-03T00:46:18;15.63;;;0.87;;
2023;SDS011;1016;48.770;9.154;2023-02-03T00:48:44;15.77;;;0.97;;
2023;SDS011;1016;48.770;9.154;2023-02-03T00:51:09;15.60;;;0.90;;
2023;SDS011;1016;48.770;9.154;2023-02-03T00:53:35;15.83;;;1.10;;
2023;SDS011;1016;48.770;9.154;2023-02-03T00:56:00;16.50;;;1.10;;
2023;SDS011;1016;48.770;9.154;2023-02-03T00:58:26;15.40;;;0.90;;
2023;SDS011;1016;48.770;9.154;2023-02-03T01:00:52;15.13;;;0.80;;
2023;SDS011;1016;48.770;9.154;2023-02-03T01:03:19;15.23;;;0.83;;
2023;SDS011;1016;48.770;9.154;2023-02-03T01:05:45;16.10;;;0.90;;
2023;SDS011;1016;48.770;9.154;2023-02-03T01:08:10;15.63;;;1.00;;
2023;SDS011;1016;48.770;9.154;2023-02-03T01:10:36;15.60;;;1.20;;
2023;SDS011;1016;48.770;9.154;2023-02-03T01:13:02;16.20;;;1.10;;
2023;SDS011;1016;48.770;9.154;2023-02-03T01:15:28;15.40;;;0.87;;
2023;SDS011;1016;48.770;9.154;2023-02-03T01:17:53;15.60;;;1.13;;
2023;SDS011;1016;48.770;9.154;2023-02-03T01:20:19;15.33;;;1.00;;
2023;SDS011;1016;48.770;9.154;2023-02-03T01:22:45;15.40;;;1.00;;
2023;SDS011;1016;48.770;9.154;2023-02-03T01:25:11;15.33;;;1.00;;
2023;SDS011;1016;48.770;9.154;2023-02-03T01:27:36;16.60;;;1.10;;
2023;SDS011;1016;48.770;9.154;2023-02-03T01:30:02;15.50;;;1.00;;
2023;SDS011;1016;48.770;9.154;2023-02-03T01:32:28;16.07;;;1.20;;
2023;SDS011;1016;48.770;9.154;2023-02-03T01:34:53;15.60;;;1.17;;
2023;SDS011;1016;48.770;9.154;2023-02-03T01:37:19;16.37;;;1.17;;
2023;SDS011;1016;48.770;9.154;2023-02-03T01:39:44;15.40;;;0.90;;
2023;SDS011;1016;48.770;9.154;2023-02-03T01:42:13;15.90;;;1.10;;
2023;SDS011;1016;48.770;9.154;2023-02-03T01:44:42;18.23;;;1.10;;
2023;SDS011;1016;48.770;9.154;2023-02-03T01:47:14;15.90;;;1.03;;
2023;SDS011;1016;48.770;9.154;2023-02-03T01:50:10;15.63;;;1.20;;
2023;SDS011;1016;48.770;9.154;2023-02-03T01:52:55;16.50;;;1.30;;
2023;SDS011;1016;48.770;9.154;2023-02-03T01:55:27;16.07;;;1.00;;
2023;SDS011;1016;48.770;9.154;2023-02-03T01:57:59;15.80;;;1.10;;
2023;SDS011;1016;48.770;9.154;2023-02-03T02:00:28;15.87;;;1.20;;
2023;SDS011;1016;48.770;9.154;2023-02-03T02:02:54;16.33;;;1.33;;
2023;SDS011;1016;48.770;9.154;2023-02-03T02:05:27;15.43;;;1.00;;
2023;SDS011;1016;48.770;9.154;2023-02-03T02:07:54;16.63;;;1.37;;
2023;SDS011;1016;48.770;9.154;2023-02-03T02:10:21;15.87;;;1.20;;
2023;SDS011;1016;48.770;9.154;2023-02-03T02:12:47;16.10;;;1.07;;
2023;SDS011;1016;48.770;9.154;2023-02-03T02:15:13;16.23;;;1.30;;
2023;SDS011;1016;48.770;9.154;2023-02-03T02:23:10;15.50;;;1.10;;
2023;SDS011;1016;48.770;9.154;2023-02-03T02:28:55;18.87;;;1.50;;
2023;SDS011;1016;48.770;9.154;2023-02-03T02:31:52;16.00;;;1.30;;
2023;SDS011;1016;48.770;9.154;2023-02-03T02:34:39;16.40;;;1.50;;
2023;SDS011;1016;48.770;9.154;2023-02-03T02:37:52;16.60;;;1.50;;
2023;SDS011;1016;48.770;9.154;2023-02-03T02:40:02;15.90;;;1.30;;
2023;SDS011;1016;48.770;9.154;2023-02-03T02:43:00;16.03;;;1.43;;
2023;SDS011;1016;48.770;9.154;2023-02-03T02:45:43;15.70;;;1.30;;
2023;SDS011;1016;48.770;9.154;2023-02-03T02:48:14;15.60;;;1.30;;
2023;SDS011;1016;48.770;9.154;2023-02-03T02:50:47;15.70;;;1.30;;
2023;SDS011;1016;48.770;9.154;2023-02-03T02:53:16;17.17;;;1.73;;
2023;SDS011;1016;48.770;9.154;2023-02-03T02:55:45;15.80;;;1.27;;
2023;SDS011;1016;48.770;9.154;2023-02-03T02:58:12;17.90;;;1.57;;
2023;SDS011;1016;48.770;9.154;2023-02-03T03:00:40;15.57;;;1.30;;
2023;SDS011;1016;48.770;9.154;2023-02-03T03:03:11;18.30;;;1.57;;
2023;SDS011;1016;48.770;9.154;2023-02-03T03:05:38;16.57;;;1.60;;
2023;SDS011;1016;48.770;9.154;2023-02-03T03:08:07;16.60;;;1.50;;
2023;SDS011;1016;48.770;9.154;2023-02-03T03:10:34;16.50;;;1.50;;
2023;SDS011;1016;48.770;9.154;2023-02-03T03:13:03;16.97;;;1.30;;
2023;SDS011;1016;48.770;9.154;2023-02-03T03:15:31;16.10;;;1.37;;
2023;SDS011;1016;48.770;9.154;2023-02-03T03:20:50;16.73;;;1.30;;
2023;SDS011;1016;48.770;9.154;2023-02-03T03:23:19;16.23;;;1.10;;
2023;SDS011;1016;48.770;9.154;2023-02-03T03:26:01;15.67;;;1.00;;
2023;SDS011;1016;48.770;9.154;2023-02-03T03:28:52;15.70;;;1.47;;
2023;SDS011;1016;48.770;9.154;2023-02-03T03:31:24;17.60;;;1.20;;
2023;SDS011;1016;48.770;9.154;2023-02-03T03:33:49;16.00;;;1.00;;
2023;SDS011;1016;48.770;9.154;2023-02-03T03:36:21;16.60;;;1.10;;
2023;SDS011;1016;48.770;9.154;2023-02-03T03:38:54;16.63;;;1.20;;
2023;SDS011;1016;48.770;9.154;2023-02-03T03:44:14;15.60;;;1.00;;
2023;SDS011;1016;48.770;9.154;2023-02-03T03:46:48;15.90;;;1.00;;
2023;SDS011;1016;48.770;9.154;2023-02-03T03:49:19;15.20;;;0.83;;
2023;SDS011;1016;48.770;9.154;2023-02-03T03:51:51;15.07;;;0.87;;
2023;SDS011;1016;48.770;9.154;2023-02-03T03:54:22;15.13;;;0.80;;
2023;SDS011;1016;48.770;9.154;2023-02-03T03:59:28;15.20;;;0.80;;
2023;SDS011;1016;48.770;9.154;2023-02-03T04:01:56;16.97;;;0.90;;
2023;SDS011;1016;48.770;9.154;2023-02-03T04:04:28;16.47;;;1.20;;
2023;SDS011;1016;48.770;9.154;2023-02-03T04:06:54;15.40;;;0.70;;
2023;SDS011;1016;48.770;9.154;2023-02-03T04:09:20;15.33;;;0.90;;
2023;SDS011;1016;48.770;9.154;2023-02-03T04:11:45;15.40;;;0.80;;
2023;SDS011;1016;48.770;9.154;2023-02-03T04:14:29;15.37;;;1.00;;
2023;SDS011;1016;48.770;9.154;2023-02-03T04:16:59;15.07;;;0.63;;
2023;SDS011;1016;48.770;9.154;2023-02-03T04:19:25;15.60;;;0.90;;
2023;SDS011;1016;48.770;9.154;2023-02-03T04:21:50;14.93;;;0.70;;
2023;SDS011;1016;48.770;9.154;2023-02-03T04:24:16;14.87;;;0.60;;
2023;SDS011;1016;48.770;9.154;2023-02-03T04:26:41;15.40;;;0.93;;
2023;SDS011;1016;48.770;9.154;2023-02-03T04:29:07;15.50;;;0.70;;
2023;SDS011;1016;48.770;9.154;2023-02-03T04:31:33;14.90;;;0.70;;
2023;SDS011;1016;48.770;9.154;2023-02-03T04:33:58;14.80;;;0.57;;
2023;SDS011;1016;48.770;9.154;2023-02-03T04:36:24;14.80;;;0.60;;
2023;SDS011;1016;48.770;9.154;2023-02-03T04:38:50;15.33;;;0.90;;
2023;SDS011;1016;48.770;9.154;2023-02-03T04:41:15;15.13;;;0.80;;
2023;SDS011;1016;48.770;9.154;2023-02-03T04:43:41;15.40;;;0.80;;
2023;SDS011;1016;48.770;9.154;2023-02-03T04:46:07;14.73;;;0.60;;
2023;SDS011;1016;48.770;9.154;2023-02-03T04:48:34;14.83;;;0.70;;
2023;SDS011;1016;48.770;9.154;2023-02-03T04:51:04;14.87;;;0.80;;
2023;SDS011;1016;48.770;9.154;2023-02-03T04:53:31;14.93;;;0.80;;
2023;SDS011;1016;48.770;9.154;2023-02-03T04:55:57;15.47;;;0.90;;
2023;SDS011;1016;48.770;9.154;2023-02-03T04:58:23;15.20;;;0.80;;
2023;SDS011;1016;48.770;9.154;2023-02-03T05:00:50;15.93;;;1.00;;
2023;SDS011;1016;48.770;9.154;2023-02-03T05:03:17;16.00;;;0.90;;
2023;SDS011;1016;48.770;9.154;2023-02-03T05:05:42;15.40;;;0.80;;
2023;SDS011;1016;48.770;9.154;2023-02-03T05:08:08;15.17;;;1.00;;
2023;SDS011;1016;48.770;9.154;2023-02-03T05:10:33;14.97;;;0.80;;
2023;SDS011;1016;48.770;9.154;2023-02-03T05:12:59;15.20;;;0.90;;
2023;SDS011;1016;48.770;9.154;2023-02-03T05:15:24;17.07;;;1.30;;
2023;SDS011;1016;48.770;9.154;2023-02-03T05:17:50;15.10;;;0.97;;
2023;SDS011;1016;48.770;9.154;2023-02-03T05:20:17;16.20;;;1.00;;
2023;SDS011;1016;48.770;9.154;2023-02-03T05:22:42;15.80;;;1.00;;
2023;SDS011;1016;48.770;9.154;2023-02-03T05:25:08;15.67;;;1.10;;
2023;SDS011;1016;48.770;9.154;2023-02-03T05:27:33;14.77;;;0.90;;
2023;SDS011;1016;48.770;9.154;2023-02-03T05:30:00;16.60;;;1.10;;
2023;SDS011;1016;48.770;9.154;2023-02-03T05:32:25;15.13;;;1.20;;
2023;SDS011;1016;48.770;9.154;2023-02-03T05:34:51;15.13;;;0.93;;
2023;SDS011;1016;48.770;9.154;2023-02-03T05:37:16;16.10;;;1.30;;
2023;SDS011;1016;48.770;9.154;2023-02-03T05:39:42;16.00;;;1.00;;
2023;SDS011;1016;48.770;9.154;2023-02-03T05:42:07;15.90;;;1.00;;
2023;SDS011;1016;48.770;9.154;2023-02-03T05:44:32;15.10;;;1.10;;
2023;SDS011;1016;48.770;9.154;2023-02-03T05:46:58;15.10;;;0.80;;
2023;SDS011;1016;48.770;9.154;2023-02-03T05:49:24;14.90;;;1.00;;
2023;SDS011;1016;48.770;9.154;2023-02-03T05:51:51;15.80;;;1.03;;
2023;SDS011;1016;48.770;9.154;2023-02-03T05:54:17;14.80;;;1.03;;
2023;SDS011;1016;48.770;9.154;2023-02-03T05:56:43;15.27;;;1.10;;
2023;SDS011;1016;48.770;9.154;2023-02-03T05:59:08;15.90;;;1.00;;
2023;SDS011;1016;48.770;9.154;2023-02-03T06:01:34;15.00;;;0.90;;
2023;SDS011;1016;48.770;9.154;2023-02-03T06:04:00;15.60;;;1.00;;
2023;SDS011;1016;48.770;9.154;2023-02-03T06:06:27;15.67;;;1.40;;
2023;SDS011;1016;48.770;9.154;2023-02-03T06:09:02;15.23;;;1.07;;
2023;SDS011;1016;48.770;9.154;2023-02-03T06:11:29;14.97;;;1.00;;
2023;SDS011;1016;48.770;9.154;2023-02-03T06:13:55;15.83;;;1.20;;
2023;SDS011;1016;48.770;9.154;2023-02-03T06:16:22;15.10;;;1.00;;
2023;SDS011;1016;48.770;9.154;2023-02-03T06:18:52;16.27;;;1.40;;
2023;SDS011;1016;48.770;9.154;2023-02-03T06:21:19;17.00;;;1.43;;
2023;SDS011;1016;48.770;9.154;2023-02-03T06:23:46;15.93;;;1.40;;
2023;SDS011;1016;48.770;9.154;2023-02-03T06:26:11;15.90;;;1.40;;
2023;SDS011;1016;48.770;9.154;2023-02-03T06:28:37;15.80;;;1.23;;
2023;SDS011;1016;48.770;9.154;2023-02-03T06:31:03;15.70;;;1.37;;
2023;SDS011;1016;48.770;9.154;2023-02-03T06:33:29;16.70;;;1.47;;
2023;SDS011;1016;48.770;9.154;2023-02-03T06:35:55;18.03;;;1.60;;
2023;SDS011;1016;48.770;9.154;2023-02-03T06:38:20;17.13;;;1.70;;
2023;SDS011;1016;48.770;9.154;2023-02-03T06:40:46;15.27;;;1.40;;
2023;SDS011;1016;48.770;9.154;2023-02-03T06:43:12;15.17;;;1.40;;
2023;SDS011;1016;48.770;9.154;2023-02-03T06:45:37;15.17;;;1.00;;
2023;SDS011;1016;48.770;9.154;2023-02-03T06:48:03;15.30;;;1.23;;
2023;SDS011;1016;48.770;9.154;2023-02-03T06:50:29;15.53;;;1.30;;
2023;SDS011;1016;48.770;9.154;2023-02-03T06:52:54;15.60;;;1.43;;
2023;SDS011;1016;48.770;9.154;2023-02-03T06:55:20;15.03;;;1.00;;
2023;SDS011;1016;48.770;9.154;2023-02-03T06:57:45;15.30;;;1.20;;
2023;SDS011;1016;48.770;9.154;2023-02-03T07:00:12;14.93;;;1.10;;
2023;SDS011;1016;48.770;9.154;2023-02-03T07:02:39;16.33;;;1.40;;
2023;SDS011;1016;48.770;9.154;2023-02-03T07:05:05;15.97;;;1.10;;
2023;SDS011;1016;48.770;9.154;2023-02-03T07:07:30;15.37;;;1.27;;
2023;SDS011;1016;48.770;9.154;2023-02-03T07:09:57;15.90;;;1.10;;
2023;SDS011;1016;48.770;9.154;2023-02-03T07:12:24;15.43;;;1.20;;
2023;SDS011;1016;48.770;9.154;2023-02-03T07:14:49;16.97;;;1.70;;
2023;SDS011;1016;48.770;9.154;2023-02-03T07:17:15;15.50;;;1.40;;
2023;SDS011;1016;48.770;9.154;2023-02-03T07:19:40;16.10;;;1.43;;
2023;SDS011;1016;48.770;9.154;2023-02-03T07:22:06;15.23;;;1.30;;
2023;SDS011;1016;48.770;9.154;2023-02-03T07:24:32;16.00;;;1.53;;
2023;SDS011;1016;48.770;9.154;2023-02-03T07:26:58;15.10;;;1.30;;
2023;SDS011;1016;48.770;9.154;2023-02-03T07:29:23;15.20;;;1.50;;
2023;SDS011;1016;48.770;9.154;2023-02-03T07:31:49;15.27;;;1.23;;
2023;SDS011;1016;48.770;9.154;2023-02-03T07:34:14;17.23;;;1.27;;
2023;SDS011;1016;48.770;9.154;2023-02-03T07:36:40;17.03;;;1.43;;
2023;SDS011;1016;48.770;9.154;2023-02-03T07:39:05;16.27;;;1.50;;
2023;SDS011;1016;48.770;9.154;2023-02-03T07:41:31;15.17;;;1.20;;
2023;SDS011;1016;48.770;9.154;2023-02-03T07:43:56;15.40;;;1.50;;
2023;SDS011;1016;48.770;9.154;2023-02-03T07:46:22;15.43;;;1.60;;
2023;SDS011;1016;48.770;9.154;2023-02-03T07:48:48;15.77;;;1.40;;
2023;SDS011;1016;48.770;9.154;2023-02-03T07:51:13;15.47;;;1.60;;
2023;SDS011;1016;48.770;9.154;2023-02-03T07:53:39;16.50;;;1.70;;
2023;SDS011;1016;48.770;9.154;2023-02-03T07:56:04;15.80;;;1.87;;
2023;SDS011;1016;48.770;9.154;2023-02-03T07:58:30;21.07;;;2.00;;
2023;SDS011;1016;48.770;9.154;2023-02-03T08:00:56;18.80;;;1.93;;
2023;SDS011;1016;48.770;9.154;2023-02-03T08:03:23;17.80;;;1.60;;
2023;SDS011;1016;48.770;9.154;2023-02-03T08:05:49;15.87;;;1.63;;
2023;SDS011;1016;48.770;9.154;2023-02-03T08:08:15;16.80;;;2.27;;
2023;SDS011;1016;48.770;9.154;2023-02-03T08:10:40;16.40;;;2.07;;
2023;SDS011;1016;48.770;9.154;2023-02-03T08:13:06;17.57;;;2.33;;
2023;SDS011;1016;48.770;9.154;2023-02-03T08:15:31;16.10;;;1.90;;
2023;SDS011;1016;48.770;9.154;2023-02-03T08:17:57;16.30;;;1.90;;
2023;SDS011;1016;48.770;9.154;2023-02-03T08:20:23;16.57;;;1.90;;
2023;SDS011;1016;48.770;9.154;2023-02-03T08:22:48;16.33;;;1.60;;
2023;SDS011;1016;48.770;9.154;2023-02-03T08:25:14;16.10;;;2.00;;
2023;SDS011;1016;48.770;9.154;2023-02-03T08:27:40;18.13;;;2.00;;
2023;SDS011;1016;48.770;9.154;2023-02-03T08:30:06;17.87;;;2.20;;
2023;SDS011;1016;48.770;9.154;2023-02-03T08:32:36;17.63;;;2.13;;
2023;SDS011;1016;48.770;9.154;2023-02-03T08:35:01;17.43;;;2.27;;
2023;SDS011;1016;48.770;9.154;2023-02-03T08:37:27;16.73;;;1.70;;
2023;SDS011;1016;48.770;9.154;2023-02-03T08:39:55;16.40;;;2.10;;
2023;SDS011;1016;48.770;9.154;2023-02-03T08:42:21;16.03;;;2.27;;
2023;SDS011;1016;48.770;9.154;2023-02-03T08:44:46;17.43;;;2.20;;
2023;SDS011;1016;48.770;9.154;2023-02-03T08:47:13;17.30;;;2.73;;
2023;SDS011;1016;48.770;9.154;2023-02-03T08:49:38;17.50;;;2.30;;
2023;SDS011;1016;48.770;9.154;2023-02-03T08:52:05;15.90;;;2.20;;
2023;SDS011;1016;48.770;9.154;2023-02-03T08:54:32;16.70;;;2.30;;
2023;SDS011;1016;48.770;9.154;2023-02-03T08:56:58;18.93;;;2.47;;
2023;SDS011;1016;48.770;9.154;2023-02-03T08:59:24;18.87;;;2.70;;
2023;SDS011;1016;48.770;9.154;2023-02-03T09:01:50;17.13;;;2.33;;
2023;SDS011;1016;48.770;9.154;2023-02-03T09:04:16;16.93;;;1.90;;
2023;SDS011;1016;48.770;9.154;2023-02-03T09:06:48;16.97;;;2.17;;
2023;SDS011;1016;48.770;9.154;2023-02-03T09:09:14;17.13;;;2.20;;
2023;SDS011;1016;48.770;9.154;2023-02-03T09:11:40;16.30;;;2.20;;
2023;SDS011;1016;48.770;9.154;2023-02-03T09:14:07;19.00;;;2.30;;
2023;SDS011;1016;48.770;9.154;2023-02-03T09:16:34;16.50;;;2.23;;
2023;SDS011;1016;48.770;9.154;2023-02-03T09:18:59;16.87;;;2.30;;
2023;SDS011;1016;48.770;9.154;2023-02-03T09:21:25;16.13;;;2.47;;
2023;SDS011;1016;48.770;9.154;2023-02-03T09:23:51;18.20;;;2.60;;
2023;SDS011;1016;48.770;9.154;2023-02-03T09:26:17;16.40;;;2.10;;
2023;SDS011;1016;48.770;9.154;2023-02-03T09:28:43;18.33;;;2.60;;
2023;SDS011;1016;48.770;9.154;2023-02-03T09:31:10;19.43;;;2.53;;
2023;SDS011;1016;48.770;9.154;2023-02-03T09:33:37;17.30;;;2.30;;
2023;SDS011;1016;48.770;9.154;2023-02-03T09:36:03;16.47;;;2.43;;
2023;SDS011;1016;48.770;9.154;2023-02-03T09:38:32;17.63;;;2.10;;
2023;SDS011;1016;48.770;9.154;2023-02-03T09:46:11;15.83;;;2.20;;
2023;SDS011;1016;48.770;9.154;2023-02-03T09:48:44;17.47;;;2.10;;
2023;SDS011;1016;48.770;9.154;2023-02-03T09:51:54;16.70;;;2.27;;
2023;SDS011;1016;48.770;9.154;2023-02-03T09:54:06;17.60;;;2.03;;
2023;SDS011;1016;48.770;9.154;2023-02-03T09:56:55;15.90;;;2.30;;
2023;SDS011;1016;48.770;9.154;2023-02-03T09:59:31;15.90;;;2.00;;
2023;SDS011;1016;48.770;9.154;2023-02-03T10:04:58;17.33;;;2.10;;
2023;SDS011;1016;48.770;9.154;2023-02-03T10:07:39;16.50;;;2.40;;
2023;SDS011;1016;48.770;9.154;2023-02-03T10:10:21;17.03;;;1.97;;
2023;SDS011;1016;48.770;9.154;2023-02-03T10:13:04;16.90;;;2.13;;
2023;SDS011;1016;48.770;9.154;2023-02-03T10:15:38;16.77;;;2.00;;
2023;SDS011;1016;48.770;9.154;2023-02-03T10:18:29;16.10;;;1.90;;
2023;SDS011;1016;48.770;9.154;2023-02-03T10:21:01;16.97;;;2.07;;
2023;SDS011;1016;48.770;9.154;2023-02-03T10:23:38;17.40;;;2.40;;
2023;SDS011;1016;48.770;9.154;2023-02-03T10:26:07;19.10;;;2.20;;
2023;SDS011;1016;48.770;9.154;2023-02-03T10:28:49;16.10;;;2.07;;
2023;SDS011;1016;48.770;9.154;2023-02-03T10:31:20;16.67;;;2.07;;
2023;SDS011;1016;48.770;9.154;2023-02-03T10:33:48;15.80;;;2.03;;
2023;SDS011;1016;48.770;9.154;2023-02-03T10:36:28;17.20;;;2.40;;
2023;SDS011;1016;48.770;9.154;2023-02-03T10:39:23;16.67;;;2.30;;
2023;SDS011;1016;48.770;9.154;2023-02-03T10:41:57;17.60;;;1.90;;
2023;SDS011;1016;48.770;9.154;2023-02-03T10:44:37;16.73;;;1.87;;
2023;SDS011;1016;48.770;9.154;2023-02-03T10:50:19;18.43;;;1.80;;
2023;SDS011;1016;48.770;9.154;2023-02-03T10:52:47;16.50;;;1.70;;
2023;SDS011;1016;48.770;9.154;2023-02-03T10:57:51;15.80;;;1.80;;
2023;SDS011;1016;48.770;9.154;2023-02-03T11:02:57;15.17;;;1.33;;
2023;SDS011;1016;48.770;9.154;2023-02-03T11:05:31;15.60;;;1.43;;
2023;SDS011;1016;48.770;9.154;2023-02-03T11:07:58;15.43;;;1.80;;
2023;SDS011;1016;48.770;9.154;2023-02-03T11:10:31;14.83;;;1.30;;
2023;SDS011;1016;48.770;9.154;2023-02-03T11:13:15;14.80;;;1.10;;
2023;SDS011;1016;48.770;9.154;2023-02-03T11:15:44;14.87;;;1.20;;
2023;SDS011;1016;48.770;9.154;2023-02-03T11:21:07;14.97;;;0.90;;
2023;SDS011;1016;48.770;9.154;2023-02-03T11:23:35;14.70;;;0.83;;
2023;SDS011;1016;48.770;9.154;2023-02-03T11:26:09;14.60;;;0.80;;
2023;SDS011;1016;48.770;9.154;2023-02-03T11:28:36;16.50;;;1.00;;
2023;SDS011;1016;48.770;9.154;2023-02-03T11:31:13;14.67;;;0.90;;
2023;SDS011;1016;48.770;9.154;2023-02-03T11:33:48;16.63;;;1.00;;
2023;SDS011;1016;48.770;9.154;2023-02-03T11:36:18;14.97;;;1.00;;
2023;SDS011;1016;48.770;9.154;2023-02-03T11:38:44;15.07;;;0.80;;
2023;SDS011;1016;48.770;9.154;2023-02-03T11:41:19;14.87;;;0.97;;
2023;SDS011;1016;48.770;9.154;2023-02-03T11:43:46;15.10;;;0.77;;
2023;SDS011;1016;48.770;9.154;2023-02-03T11:46:12;14.83;;;0.90;;
2023;SDS011;1016;48.770;9.154;2023-02-03T11:48:58;14.93;;;0.90;;
2023;SDS011;1016;48.770;9.154;2023-02-03T12:02:33;14.80;;;1.00;;
2023;SDS011;1016;48.770;9.154;2023-02-03T12:13:12;14.80;;;0.80;;
2023;SDS011;1016;48.770;9.154;2023-02-03T12:16:09;14.77;;;0.87;;
2023;SDS011;1016;48.770;9.154;2023-02-03T12:18:57;14.73;;;0.80;;
2023;SDS011;1016;48.770;9.154;2023-02-03T12:21:43;14.87;;;0.80;;
2023;SDS011;1016;48.770;9.154;2023-02-03T12:24:30;15.50;;;0.90;;
2023;SDS011;1016;48.770;9.154;2023-02-03T12:30:21;15.70;;;1.00;;
2023;SDS011;1016;48.770;9.154;2023-02-03T12:32:50;15.20;;;1.00;;
2023;SDS011;1016;48.770;9.154;2023-02-03T12:35:24;14.80;;;0.77;;
2023;SDS011;1016;48.770;9.154;2023-02-03T12:40:45;15.10;;;1.07;;
2023;SDS011;1016;48.770;9.154;2023-02-03T12:45:57;14.93;;;0.80;;
2023;SDS011;1016;48.770;9.154;2023-02-03T12:48:35;15.17;;;0.90;;
2023;SDS011;1016;48.770;9.154;2023-02-03T12:51:03;15.03;;;1.03;;
2023;SDS011;1016;48.770;9.154;2023-02-03T12:53:33;15.17;;;0.80;;
2023;SDS011;1016;48.770;9.154;2023-02-03T12:56:18;15.30;;;0.83;;
2023;SDS011;1016;48.770;9.154;2023-02-03T12:58:51;15.47;;;1.30;;
2023;SDS011;1016;48.770;9.154;2023-02-03T13:01:33;15.50;;;1.00;;
2023;SDS011;1016;48.770;9.154;2023-02-03T13:04:08;15.37;;;1.00;;
2023;SDS011;1016;48.770;9.154;2023-02-03T13:06:40;15.23;;;1.07;;
2023;SDS011;1016;48.770;9.154;2023-02-03T13:12:07;15.97;;;1.90;;
2023;SDS011;1016;48.770;9.154;2023-02-03T13:14:49;15.50;;;1.40;;
2023;SDS011;1016;48.770;9.154;2023-02-03T13:17:22;14.77;;;0.90;;
2023;SDS011;1016;48.770;9.154;2023-02-03T13:19:53;15.90;;;1.73;;
2023;SDS011;1016;48.770;9.154;2023-02-03T13:22:26;15.63;;;1.50;;
2023;SDS011;1016;48.770;9.154;2023-02-03T13:25:05;19.13;;;2.27;;
2023;SDS011;1016;48.770;9.154;2023-02-03T13:30:17;15.40;;;1.30;;
2023;SDS011;1016;48.770;9.154;2023-02-03T13:43:18;15.40;;;1.07;;
2023;SDS011;1016;48.770;9.154;2023-02-03T13:45:53;18.13;;;0.90;;
2023;SDS011;1016;48.770;9.154;2023-02-03T13:48:28;14.93;;;0.80;;
2023;SDS011;1016;48.770;9.154;2023-02-03T13:51:06;17.07;;;1.17;;
2023;SDS011;1016;48.770;9.154;2023-02-03T13:53:38;16.50;;;1.00;;
2023;SDS011;1016;48.770;9.154;2023-02-03T13:56:21;15.83;;;1.00;;
2023;SDS011;1016;48.770;9.154;2023-02-03T13:59:02;15.70;;;1.10;;
2023;SDS011;1016;48.770;9.154;2023-02-03T14:03:57;15.37;;;1.17;;
2023;SDS011;1016;48.770;9.154;2023-02-03T14:09:19;15.37;;;0.90;;
2023;SDS011;1016;48.770;9.154;2023-02-03T14:17:06;15.60;;;1.10;;
2023;SDS011;1016;48.770;9.154;2023-02-03T14:22:18;15.10;;;0.80;;
2023;SDS011;1016;48.770;9.154;2023-02-03T14:24:44;16.20;;;0.90;;
2023;SDS011;1016;48.770;9.154;2023-02-03T14:27:22;15.60;;;1.10;;
2023;SDS011;1016;48.770;9.154;2023-02-03T14:35:22;14.97;;;0.87;;
2023;SDS011;1016;48.770;9.154;2023-02-03T14:37:57;16.30;;;1.40;;
2023;SDS011;1016;48.770;9.154;2023-02-03T14:48:35;16.20;;;1.47;;
2023;SDS011;1016;48.770;9.154;2023-02-03T14:54:03;16.10;;;1.00;;
2023;SDS011;1016;48.770;9.154;2023-02-03T14:59:53;15.07;;;0.80;;
2023;SDS011;1016;48.770;9.154;2023-02-03T15:02:26;15.80;;;0.90;;
2023;SDS011;1016;48.770;9.154;2023-02-03T15:07:43;16.00;;;1.83;;
2023;SDS011;1016;48.770;9.154;2023-02-03T15:12:46;15.13;;;1.00;;
2023;SDS011;1016;48.770;9.154;2023-02-03T15:17:54;15.17;;;0.93;;
2023;SDS011;1016;48.770;9.154;2023-02-03T15:22:49;14.83;;;0.90;;
2023;SDS011;1016;48.770;9.154;2023-02-03T15:25:16;15.07;;;0.90;;
2023;SDS011;1016;48.770;9.154;2023-02-03T15:27:45;16.33;;;0.90;;
2023;SDS011;1016;48.770;9.154;2023-02-03T15:30:17;15.20;;;1.10;;
2023;SDS011;1016;48.770;9.154;2023-02-03T15:33:13;15.10;;;1.00;;
2023;SDS011;1016;48.770;9.154;2023-02-03T15:35:39;14.93;;;0.87;;
2023;SDS011;1016;48.770;9.154;2023-02-03T15:38:07;15.57;;;0.83;;
2023;SDS011;1016;48.770;9.154;2023-02-03T15:40:49;15.10;;;1.00;;
2023;SDS011;1016;48.770;9.154;2023-02-03T15:43:23;15.30;;;0.80;;
2023;SDS011;1016;48.770;9.154;2023-02-03T15:51:11;15.03;;;0.90;;
2023;SDS011;1016;48.770;9.154;2023-02-03T15:53:52;15.00;;;0.90;;
2023;SDS011;1016;48.770;9.154;2023-02-03T15:58:47;15.20;;;0.90;;
2023;SDS011;1016;48.770;9.154;2023-02-03T16:01:13;15.27;;;0.80;;
2023;SDS011;1016;48.770;9.154;2023-02-03T16:03:52;16.00;;;0.90;;
2023;SDS011;1016;48.770;9.154;2023-02-03T16:06:22;14.73;;;0.80;;
2023;SDS011;1016;48.770;9.154;2023-02-03T16:08:54;16.17;;;1.10;;
2023;SDS011;1016;48.770;9.154;2023-02-03T16:11:31;15.20;;;1.00;;
2023;SDS011;1016;48.770;9.154;2023-02-03T16:13:58;14.90;;;0.90;;
2023;SDS011;1016;48.770;9.154;2023-02-03T16:19:14;14.67;;;0.83;;
2023;SDS011;1016;48.770;9.154;2023-02-03T16:32:37;15.17;;;1.10;;
2023;SDS011;1016;48.770;9.154;2023-02-03T16:35:22;14.97;;;0.93;;
2023;SDS011;1016;48.770;9.154;2023-02-03T16:38:13;14.67;;;0.90;;
2023;SDS011;1016;48.770;9.154;2023-02-03T16:40:59;14.77;;;1.00;;
2023;SDS011;1016;48.770;9.154;2023-02-03T16:43:43;14.97;;;0.90;;
2023;SDS011;1016;48.770;9.154;2023-02-03T16:46:28;14.70;;;1.00;;
2023;SDS011;1016;48.770;9.154;2023-02-03T16:49:12;14.63;;;0.90;;
2023;SDS011;1016;48.770;9.154;2023-02-03T16:51:56;14.93;;;0.90;;
2023;SDS011;1016;48.770;9.154;2023-02-03T16:54:22;14.70;;;0.97;;
2023;SDS011;1016;48.770;9.154;2023-02-03T16:56:48;15.40;;;1.43;;
2023;SDS011;1016;48.770;9.154;2023-02-03T16:59:15;14.87;;;1.10;;
2023;SDS011;1016;48.770;9.154;2023-02-03T17:01:41;14.97;;;1.20;;
2023;SDS011;1016;48.770;9.154;2023-02-03T17:04:07;15.60;;;1.13;;
2023;SDS011;1016;48.770;9.154;2023-02-03T17:06:38;14.83;;;1.00;;
2023;SDS011;1016;48.770;9.154;2023-02-03T17:09:04;15.00;;;1.00;;
2023;SDS011;1016;48.770;9.154;2023-02-03T17:11:29;15.03;;;0.97;;
2023;SDS011;1016;48.770;9.154;2023-02-03T17:13:55;14.73;;;0.97;;
2023;SDS011;1016;48.770;9.154;2023-02-03T17:16:22;14.63;;;0.80;;
2023;SDS011;1016;48.770;9.154;2023-02-03T17:18:49;14.97;;;1.00;;
2023;SDS011;1016;48.770;9.154;2023-02-03T17:21:17;14.70;;;0.90;;
2023;SDS011;1016;48.770;9.154;2023-02-03T17:23:48;14.53;;;0.80;;
2023;SDS011;1016;48.770;9.154;2023-02-03T17:26:13;14.50;;;0.90;;
2023;SDS011;1016;48.770;9.154;2023-02-03T17:28:39;14.57;;;0.90;;
2023;SDS011;1016;48.770;9.154;2023-02-03T17:31:07;14.47;;;0.90;;
2023;SDS011;1016;48.770;9.154;2023-02-03T17:33:36;14.47;;;0.80;;
2023;SDS011;1016;48.770;9.154;2023-02-03T17:36:03;14.77;;;0.90;;
2023;SDS011;1016;48.770;9.154;2023-02-03T17:38:36;15.30;;;1.03;;
2023;SDS011;1016;48.770;9.154;2023-02-03T17:41:10;14.63;;;0.90;;